Time;durP1;ratioP1;P1;durP2;ratioP2;P2;SDS_P1;SDS_P2;PMS_P1;PMS_P2;Temp;Humidity;BMP_temperature;BMP_pressure;BME280_temperature;BME280_humidity;BME280_pressure;Samples;Min_cycle;Max_cycle;Signal;HPM_P1;HPM_P2
2022/03/18 00:01:01;;;;;;;4.23;3.57;;;;;;;16.94;51.60;98010.81;10459367;28;20028;-24
2022/03/18 00:06:02;;;;;;;5.70;4.63;;;;;;;17.05;56.46;98011.94;10459024;28;20295;-24
2022/03/18 00:11:03;;;;;;;6.10;4.45;;;;;;;17.10;56.80;98016.31;10445778;28;20028;-24
2022/03/18 00:16:04;;;;;;;5.20;3.97;;;;;;;17.05;52.94;98022.06;10458266;28;20041;-25
2022/03/18 00:21:07;;;;;;;3.72;3.42;;;;;;;17.01;51.82;98022.81;10458716;28;20389;-24
2022/03/18 00:26:07;;;;;;;4.15;3.75;;;;;;;16.88;51.69;98008.97;10460836;28;20120;-24
2022/03/18 00:31:08;;;;;;;3.80;3.33;;;;;;;16.96;51.73;98026.88;10450089;28;20564;-24
2022/03/18 00:36:09;;;;;;;4.20;3.50;;;;;;;16.92;51.65;98025.94;10466621;28;20056;-24
2022/03/18 00:41:09;;;;;;;3.67;3.22;;;;;;;16.92;51.54;98030.16;10460067;28;20396;-23
2022/03/18 00:46:10;;;;;;;4.60;3.47;;;;;;;16.93;51.79;98029.34;10456035;28;20041;-24
2022/03/18 00:56:29;;;;;;;3.47;2.88;;;;;;;16.92;51.54;98036.06;10452168;28;20182;-23
2022/03/18 01:01:30;;;;;;;3.57;3.27;;;;;;;16.88;51.68;98033.41;10459741;28;20094;-24
2022/03/18 01:06:31;;;;;;;3.40;3.10;;;;;;;16.92;51.51;98036.06;10456854;28;20039;-24
2022/03/18 01:11:32;;;;;;;5.93;4.20;;;;;;;16.92;55.39;98030.16;10450393;28;20028;-25
2022/03/18 01:16:33;;;;;;;9.10;4.45;;;;;;;17.05;57.62;98027.13;10459391;28;20041;-24
2022/03/18 01:21:33;;;;;;;7.33;4.47;;;;;;;17.06;57.35;98031.38;10462435;28;20424;-25
2022/03/18 01:26:33;;;;;;;3.47;3.00;;;;;;;17.02;52.26;98027.03;10467475;28;20294;-25
2022/03/18 01:31:35;;;;;;;4.13;3.30;;;;;;;16.96;51.52;98032.81;10456168;28;20640;-24
2022/03/18 01:36:36;;;;;;;3.45;2.95;;;;;;;16.95;51.59;98031.09;10462046;28;20552;-24
2022/03/18 01:41:36;;;;;;;3.00;2.80;;;;;;;16.95;51.58;98030.22;10466633;28;20078;-23
2022/03/18 01:46:37;;;;;;;3.55;2.95;;;;;;;16.94;51.31;98028.50;10459019;28;20041;-25
2022/03/18 01:51:39;;;;;;;3.45;2.88;;;;;;;16.94;51.40;98033.56;10466582;28;20025;-23
2022/03/18 01:56:40;;;;;;;2.65;2.42;;;;;;;16.93;51.54;98030.19;10460384;28;20505;-24
2022/03/18 02:01:41;;;;;;;3.72;2.70;;;;;;;16.94;51.26;98031.91;10443151;28;20488;-24
2022/03/18 02:06:42;;;;;;;3.88;3.25;;;;;;;16.96;51.81;98026.88;10460377;28;20037;-24
2022/03/18 02:11:43;;;;;;;3.15;2.90;;;;;;;16.94;51.59;98029.38;10470472;28;20404;-23
2022/03/18 02:16:43;;;;;;;2.55;2.35;;;;;;;16.92;51.70;98032.69;10456550;28;20128;-25
2022/03/18 02:21:44;;;;;;;4.23;3.23;;;;;;;17.01;57.06;98032.94;10462067;28;20047;-24
2022/03/18 02:26:49;;;;;;;5.68;3.60;;;;;;;17.06;57.30;98036.44;10465543;28;20516;-24
2022/03/18 02:31:50;;;;;;;4.63;3.00;;;;;;;17.03;53.53;98044.81;10453697;28;20044;-24
2022/03/18 02:36:50;;;;;;;2.97;2.78;;;;;;;16.99;51.65;98037.09;10462465;28;20044;-24
2022/03/18 02:41:51;;;;;;;3.77;2.80;;;;;;;16.96;51.50;98039.53;10463868;28;20032;-26
2022/03/18 02:46:51;;;;;;;9.35;2.75;;;;;;;16.93;51.67;98035.25;10460284;28;20034;-24
2022/03/18 02:51:52;;;;;;;2.47;2.28;;;;;;;16.94;51.51;98044.56;10464064;28;20043;-24
2022/03/18 02:56:52;;;;;;;3.20;2.50;;;;;;;16.89;51.65;98030.91;10456501;28;20035;-24
2022/03/18 03:01:52;;;;;;;2.80;2.60;;;;;;;16.93;51.77;98041.97;10461399;28;20079;-24
2022/03/18 03:12:12;;;;;;;2.85;2.65;;;;;;;16.92;51.62;98046.16;10463373;28;20400;-24
2022/03/18 03:17:12;;;;;;;2.70;2.47;;;;;;;16.92;51.39;98051.22;10461541;28;20052;-23
2022/03/18 03:22:13;;;;;;;2.80;2.50;;;;;;;16.92;51.44;98051.22;10463752;28;20391;-23
2022/03/18 03:27:13;;;;;;;2.97;2.40;;;;;;;16.90;51.55;98057.09;10462503;28;20404;-23
2022/03/18 03:32:14;;;;;;;3.58;3.10;;;;;;;16.94;57.14;98048.75;10454032;28;20067;-23
2022/03/18 03:37:14;;;;;;;4.85;3.67;;;;;;;17.04;57.79;98055.78;10466098;28;20029;-24
2022/03/18 03:42:15;;;;;;;3.17;2.87;;;;;;;16.98;52.66;98064.06;10459534;28;20033;-25
2022/03/18 03:47:16;;;;;;;3.47;2.67;;;;;;;16.95;52.08;98063.13;10461060;28;20040;-24
2022/03/18 03:52:16;;;;;;;2.83;2.20;;;;;;;16.94;51.64;98063.94;10460788;28;20110;-24
2022/03/18 03:57:17;;;;;;;2.67;2.47;;;;;;;16.93;52.01;98069.81;10453527;28;20124;-24
2022/03/18 04:02:18;;;;;;;2.30;2.03;;;;;;;16.91;51.78;98068.91;10461140;28;20036;-25
2022/03/18 04:07:19;;;;;;;3.28;2.50;;;;;;;16.92;51.77;98071.47;10460856;28;20136;-24
2022/03/18 04:12:21;;;;;;;3.00;2.20;;;;;;;16.91;51.44;98077.34;10459251;28;20036;-24
2022/03/18 04:17:22;;;;;;;2.30;2.10;;;;;;;16.92;51.50;98075.69;10454675;28;20033;-24
2022/03/18 04:22:23;;;;;;;4.13;2.25;;;;;;;16.92;51.63;98086.66;10460338;28;20427;-24
2022/03/18 04:27:23;;;;;;;2.30;2.10;;;;;;;16.92;51.85;98088.34;10458826;28;20041;-24
2022/03/18 04:32:24;;;;;;;4.13;2.58;;;;;;;16.91;51.79;98079.88;10447224;28;20029;-24
2022/03/18 04:37:24;;;;;;;4.00;3.20;;;;;;;16.92;52.10;98089.19;10461711;28;20032;-24
2022/03/18 04:42:25;;;;;;;7.55;3.28;;;;;;;17.03;56.79;98094.53;10460050;28;20033;-24
2022/03/18 04:47:27;;;;;;;5.00;2.65;;;;;;;17.04;55.53;98099.66;10454869;28;20045;-23
2022/03/18 04:52:28;;;;;;;2.45;2.20;;;;;;;17.02;52.15;98103.81;10459569;28;20048;-24
2022/03/18 04:57:28;;;;;;;3.17;2.38;;;;;;;17.00;51.61;98102.06;10447761;28;20033;-24
2022/03/18 05:02:29;;;;;;;2.50;2.30;;;;;;;17.01;51.66;98106.31;10437245;28;20037;-24
2022/03/18 05:07:29;;;;;;;2.22;2.03;;;;;;;17.02;51.53;98113.06;10441470;28;20037;-24
2022/03/18 05:12:31;;;;;;;2.55;2.33;;;;;;;17.05;52.02;98115.66;10431650;28;20432;-24
2022/03/18 05:17:31;;;;;;;3.05;2.60;;;;;;;17.05;51.93;98124.13;10424539;28;20048;-22
2022/03/18 05:22:32;;;;;;;2.20;2.00;;;;;;;17.06;51.89;98125.84;10444531;28;20400;-24
2022/03/18 05:27:33;;;;;;;2.58;2.22;;;;;;;17.05;51.97;98138.44;10444932;28;20044;-24
2022/03/18 05:32:33;;;;;;;2.47;2.05;;;;;;;17.04;51.86;98137.59;10428052;28;20025;-25
2022/03/18 05:37:34;;;;;;;2.40;1.92;;;;;;;17.05;52.40;98151.97;10454841;28;20419;-25
2022/03/18 05:42:34;;;;;;;2.47;2.10;;;;;;;17.06;51.92;98152.84;10458339;28;20201;-24
2022/03/18 05:47:34;;;;;;;3.03;2.53;;;;;;;17.11;54.88;98153.81;10459627;28;20048;-25
2022/03/18 05:52:39;;;;;;;14.27;7.63;;;;;;;16.91;54.09;98153.25;10456475;28;20033;-25
2022/03/18 05:57:39;;;;;;;6.95;6.13;;;;;;;16.65;53.85;98160.03;10452555;28;20055;-25
2022/03/18 06:02:41;;;;;;;8.93;5.80;;;;;;;16.51;53.88;98152.03;10454595;28;20043;-25
2022/03/18 06:07:41;;;;;;;4.40;3.15;;;;;;;16.89;51.88;98154.88;10460400;28;20287;-25
2022/03/18 06:12:41;;;;;;;4.33;2.43;;;;;;;16.97;52.00;98161.00;10467973;28;20034;-25
2022/03/18 06:17:42;;;;;;;2.33;2.13;;;;;;;17.03;51.73;98160.31;10454187;28;20040;-25
2022/03/18 06:22:42;;;;;;;5.27;3.40;;;;;;;17.02;51.96;98168.72;10469871;28;20035;-25
2022/03/18 06:27:42;;;;;;;2.83;2.30;;;;;;;17.05;51.59;98172.22;10467893;28;20044;-25
2022/03/18 06:32:43;;;;;;;8.10;3.03;;;;;;;17.01;52.58;98178.00;10454984;28;20032;-24
2022/03/18 06:37:43;;;;;;;4.10;2.63;;;;;;;16.94;51.69;98176.13;10450283;28;20036;-25
2022/03/18 06:42:43;;;;;;;3.67;2.57;;;;;;;16.96;51.91;98183.72;10464932;28;20519;-25
2022/03/18 06:47:44;;;;;;;6.90;2.53;;;;;;;16.94;52.25;98175.25;10460123;28;20202;-25
2022/03/18 06:52:45;;;;;;;5.87;3.13;;;;;;;17.06;51.52;98195.84;10467301;28;20537;-23
2022/03/18 06:57:45;;;;;;;9.57;3.20;;;;;;;17.08;53.23;98189.16;10467079;28;20055;-25
2022/03/18 07:02:45;;;;;;;9.73;4.27;;;;;;;17.11;54.90;98195.16;10454786;28;20041;-25
2022/03/18 07:07:48;;;;;;;8.77;3.75;;;;;;;17.11;53.36;98189.22;10444225;28;20795;-25
2022/03/18 07:12:48;;;;;;;4.45;2.13;;;;;;;17.10;52.06;98202.72;10463275;28;20025;-25
2022/03/18 07:17:55;;;;;;;3.45;2.53;;;;;;;17.07;51.98;98207.69;10459165;28;20042;-27
2022/03/18 07:23:07;;;;;;;7.63;3.00;;;;;;;17.08;51.89;98204.34;10471340;28;20037;-25
2022/03/18 07:28:09;;;;;;;3.63;2.72;;;;;;;17.06;51.75;98209.34;10461600;28;20037;-26
2022/03/18 07:33:10;;;;;;;4.82;2.95;;;;;;;17.04;51.38;98212.63;10440386;28;20559;-25
2022/03/18 07:38:11;;;;;;;6.75;3.97;;;;;;;17.04;51.57;98213.50;10444142;28;20037;-24
2022/03/18 07:43:11;;;;;;;52.23;7.83;;;;;;;16.98;53.10;98212.47;10459277;28;20025;-24
2022/03/18 07:48:12;;;;;;;21.45;4.95;;;;;;;17.03;52.16;98223.59;10456154;28;20309;-25
2022/03/18 07:53:12;;;;;;;14.30;4.87;;;;;;;17.02;51.87;98229.47;10461643;28;20632;-25
2022/03/18 07:58:13;;;;;;;14.63;4.13;;;;;;;16.99;52.38;98214.19;10460641;28;20499;-23
2022/03/18 08:03:14;;;;;;;10.55;3.17;;;;;;;17.00;52.45;98218.44;10460313;28;20427;-25
2022/03/18 08:08:14;;;;;;;6.63;2.90;;;;;;;17.03;53.64;98226.13;10446589;28;20467;-25
2022/03/18 08:13:15;;;;;;;22.17;3.80;;;;;;;17.12;53.48;98221.31;10449438;28;20063;-24
2022/03/18 08:18:16;;;;;;;15.35;3.75;;;;;;;17.21;53.28;98231.69;10452025;28;20288;-25
2022/03/18 08:23:17;;;;;;;7.35;2.58;;;;;;;17.29;52.46;98232.78;10459383;28;20037;-23
2022/03/18 08:28:17;;;;;;;12.95;4.75;;;;;;;17.44;52.55;98236.66;10435208;28;20111;-23
2022/03/18 08:33:19;;;;;;;6.13;3.10;;;;;;;17.46;52.04;98234.16;10462021;28;20028;-23
2022/03/18 08:38:20;;;;;;;6.30;2.67;;;;;;;17.46;52.04;98236.69;10468412;28;20448;-23
2022/03/18 08:43:20;;;;;;;5.53;2.83;;;;;;;17.31;51.91;98232.03;10446079;28;20141;-23
2022/03/18 08:48:20;;;;;;;8.10;5.67;;;;;;;17.24;52.31;98242.78;10454883;28;20033;-22
2022/03/18 08:53:21;;;;;;;7.27;3.40;;;;;;;17.20;51.90;98242.66;10446706;28;20048;-24
2022/03/18 08:58:22;;;;;;;8.00;3.87;;;;;;;17.19;52.55;98256.13;10438728;28;20033;-23
2022/03/18 09:03:22;;;;;;;7.45;4.10;;;;;;;17.15;52.23;98261.91;10464697;28;20119;-25
2022/03/18 09:08:23;;;;;;;13.67;6.13;;;;;;;17.11;52.28;98252.50;10461186;28;20504;-24
2022/03/18 09:13:23;;;;;;;7.40;4.47;;;;;;;17.11;52.40;98249.97;10456642;28;20550;-22
2022/03/18 09:18:23;;;;;;;10.88;4.82;;;;;;;17.15;52.34;98266.97;10461584;28;20569;-22
2022/03/18 09:23:25;;;;;;;9.10;4.37;;;;;;;17.16;52.44;98261.09;10464945;28;20035;-23
2022/03/18 09:28:25;;;;;;;7.65;3.80;;;;;;;17.08;52.11;98254.94;10454964;28;20037;-23
2022/03/18 09:33:25;;;;;;;32.00;5.80;;;;;;;17.09;53.94;98267.63;10458392;28;20034;-23
2022/03/18 09:38:26;;;;;;;44.77;7.13;;;;;;;17.10;56.48;98273.56;10458464;28;20022;-23
2022/03/18 09:43:35;;;;;;;21.95;4.53;;;;;;;17.07;53.91;98284.44;10465039;28;20041;-23
2022/03/18 09:48:36;;;;;;;10.68;4.10;;;;;;;17.08;53.65;98291.22;10467421;28;20502;-23
2022/03/18 09:53:36;;;;;;;15.20;7.32;;;;;;;17.27;53.67;98290.09;10467757;28;20025;-23
2022/03/18 09:58:37;;;;;;;11.77;6.72;;;;;;;17.38;53.41;98294.72;10462694;28;20033;-22
2022/03/18 10:03:39;;;;;;;12.38;6.82;;;;;;;17.46;53.13;98294.91;10475830;28;20111;-22
2022/03/18 10:08:41;;;;;;;12.95;6.90;;;;;;;17.51;53.30;98298.44;10466480;28;20487;-23
2022/03/18 10:13:53;;;;;;;15.23;5.95;;;;;;;17.60;53.73;98298.72;10456453;28;20037;-23
2022/03/18 10:18:54;;;;;;;18.63;6.97;;;;;;;17.65;52.93;98300.56;10457839;28;20374;-22
2022/03/18 10:24:09;;;;;;;10.47;7.07;;;;;;;17.59;52.89;98297.00;10453487;28;20047;-24
2022/03/18 10:29:11;;;;;;;13.90;6.65;;;;;;;17.67;53.25;98295.53;10462911;28;20119;-22
2022/03/18 10:39:37;;;;;;;14.60;6.70;;;;;;;17.46;52.95;98310.09;10446649;28;20531;-24
2022/03/18 10:44:58;;;;;;;11.20;6.87;;;;;;;17.39;52.66;98303.13;10462859;28;20055;-23
2022/03/18 10:50:11;;;;;;;14.48;7.20;;;;;;;17.43;53.11;98302.44;10467532;28;20036;-23
2022/03/18 10:55:31;;;;;;;29.27;7.20;;;;;;;17.50;52.82;98310.25;10461766;28;20163;-23
2022/03/18 11:00:36;;;;;;;9.50;5.22;;;;;;;17.45;52.24;98318.53;10456413;28;20423;-24
2022/03/18 11:05:39;;;;;;;11.02;6.40;;;;;;;17.42;52.51;98319.28;10464490;28;20036;-23
2022/03/18 11:16:02;;;;;;;12.35;5.60;;;;;;;17.36;52.30;98305.59;10435435;28;20490;-22
2022/03/18 11:21:05;;;;;;;13.05;6.60;;;;;;;17.38;53.05;98311.56;10459293;28;20030;-21
2022/03/18 11:26:07;;;;;;;15.35;6.07;;;;;;;17.31;52.73;98315.56;10453857;28;20040;-21
2022/03/18 11:31:19;;;;;;;22.40;10.02;;;;;;;17.27;53.90;98310.34;10451695;28;20493;-21
2022/03/18 11:36:19;;;;;;;20.98;8.38;;;;;;;17.36;53.81;98309.00;10465787;28;20036;-21
2022/03/18 11:41:23;;;;;;;10.02;6.10;;;;;;;17.32;52.75;98298.72;10464426;28;20036;-22
2022/03/18 11:46:27;;;;;;;9.68;6.00;;;;;;;17.22;52.24;98289.09;10454531;28;20049;-23
2022/03/18 11:51:28;;;;;;;11.60;6.30;;;;;;;17.25;52.64;98297.66;10451137;28;20037;-23
2022/03/18 11:56:54;;;;;;;13.85;5.60;;;;;;;17.21;52.49;98297.50;10466815;28;20044;-22
2022/03/18 12:02:04;;;;;;;10.55;6.55;;;;;;;17.17;52.46;98290.66;10447181;28;20169;-23
2022/03/18 12:07:11;;;;;;;11.63;7.30;;;;;;;17.20;54.09;98280.59;10450596;28;20041;-22
2022/03/18 12:12:16;;;;;;;10.95;6.72;;;;;;;17.25;53.29;98281.63;10464032;28;20028;-22
2022/03/18 12:17:17;;;;;;;11.23;6.10;;;;;;;17.24;52.73;98283.28;10459560;28;20111;-23
2022/03/18 12:22:19;;;;;;;11.60;6.18;;;;;;;17.28;53.13;98289.28;10453755;28;20086;-23
2022/03/18 12:27:26;;;;;;;14.20;6.35;;;;;;;17.36;53.26;98287.88;10458356;28;20071;-22
2022/03/18 12:32:27;;;;;;;10.15;6.18;;;;;;;17.43;52.88;98280.53;10465738;28;20098;-21
2022/03/18 12:37:33;;;;;;;22.95;10.25;;;;;;;17.51;53.50;98263.84;10457591;28;20417;-21
2022/03/18 12:42:52;;;;;;;25.70;12.97;;;;;;;17.60;53.14;98268.31;10439621;28;20033;-21
2022/03/18 12:47:54;;;;;;;10.63;6.57;;;;;;;17.75;52.77;98269.59;10447971;28;20259;-21
2022/03/18 12:52:56;;;;;;;14.63;7.63;;;;;;;17.77;53.40;98255.31;10454760;28;20404;-23
2022/03/18 12:57:57;;;;;;;13.20;7.35;;;;;;;17.86;53.27;98253.03;10464262;28;20038;-21
2022/03/18 13:02:58;;;;;;;13.45;8.02;;;;;;;17.92;52.89;98257.38;10458944;28;20460;-23
2022/03/18 13:08:07;;;;;;;14.30;7.50;;;;;;;17.84;52.72;98259.69;10458219;28;20043;-21
2022/03/18 13:13:13;;;;;;;18.25;10.88;;;;;;;17.71;52.60;98252.59;10461100;28;20057;-21
2022/03/18 13:18:15;;;;;;;15.20;8.07;;;;;;;17.66;53.44;98258.38;10463425;28;20460;-23
2022/03/18 13:23:19;;;;;;;11.02;6.25;;;;;;;17.56;53.17;98261.47;10472267;28;20031;-23
2022/03/18 13:28:21;;;;;;;15.70;7.28;;;;;;;17.48;53.32;98256.16;10466087;28;20170;-24
2022/03/18 13:33:23;;;;;;;15.80;7.70;;;;;;;17.42;53.77;98258.53;10470768;28;20115;-24
2022/03/18 13:38:25;;;;;;;14.23;6.85;;;;;;;17.40;52.89;98250.03;10456330;28;20618;-24
2022/03/18 13:43:35;;;;;;;12.45;7.97;;;;;;;17.38;53.31;98258.38;10454105;28;20032;-23
2022/03/18 13:48:36;;;;;;;14.70;8.18;;;;;;;17.38;53.60;98254.19;10447587;28;20552;-23
2022/03/18 13:53:39;;;;;;;11.00;6.95;;;;;;;17.32;53.54;98237.94;10461302;28;20121;-23
2022/03/18 13:58:40;;;;;;;12.63;7.88;;;;;;;17.32;53.19;98230.34;10458656;28;20127;-23
2022/03/18 14:03:42;;;;;;;14.77;8.02;;;;;;;17.30;53.25;98229.44;10466777;28;20094;-22
2022/03/18 14:08:42;;;;;;;11.63;6.78;;;;;;;17.27;53.56;98230.22;10461564;28;20048;-23
2022/03/18 14:13:43;;;;;;;9.80;6.70;;;;;;;17.26;53.09;98235.22;10464671;28;20028;-24
2022/03/18 14:18:44;;;;;;;9.80;6.95;;;;;;;17.27;53.78;98234.41;10455593;28;20214;-23
2022/03/18 14:23:46;;;;;;;9.23;6.50;;;;;;;17.23;53.36;98235.16;10466826;28;20032;-23
2022/03/18 14:28:48;;;;;;;10.68;6.88;;;;;;;17.22;53.07;98233.41;10459112;28;20195;-23
2022/03/18 14:33:48;;;;;;;10.85;7.28;;;;;;;17.22;53.11;98228.34;10462782;28;20068;-23
2022/03/18 14:38:49;;;;;;;10.57;7.53;;;;;;;17.21;53.01;98219.03;10463774;28;20092;-24
2022/03/18 14:43:49;;;;;;;11.17;6.90;;;;;;;17.19;52.90;98220.69;10461335;28;20396;-23
2022/03/18 14:48:50;;;;;;;13.07;8.25;;;;;;;17.20;53.93;98217.34;10461489;28;20052;-24
2022/03/18 14:53:50;;;;;;;12.37;7.40;;;;;;;17.29;54.62;98222.66;10455279;28;20412;-23
2022/03/18 14:58:50;;;;;;;16.67;8.80;;;;;;;17.36;59.04;98217.88;10463034;28;20036;-24
2022/03/18 15:03:52;;;;;;;10.27;7.33;;;;;;;17.30;53.70;98214.25;10458602;28;20364;-23
2022/03/18 15:08:52;;;;;;;8.73;6.00;;;;;;;17.26;53.50;98215.00;10462889;28;20404;-25
2022/03/18 15:13:53;;;;;;;9.17;6.60;;;;;;;17.23;53.36;98207.31;10462554;28;20116;-24
2022/03/18 15:18:54;;;;;;;14.57;7.57;;;;;;;17.21;53.28;98207.25;10458424;28;20040;-23
2022/03/18 15:23:54;;;;;;;11.45;6.07;;;;;;;17.21;53.20;98221.56;10460737;28;20419;-24
2022/03/18 15:28:54;;;;;;;12.70;7.20;;;;;;;17.21;52.80;98212.31;10460009;28;20051;-24
2022/03/18 15:33:55;;;;;;;13.33;7.60;;;;;;;17.19;52.98;98211.44;10468753;28;20052;-22
2022/03/18 15:38:57;;;;;;;11.13;7.50;;;;;;;17.22;52.98;98213.16;10462454;28;20033;-24
2022/03/18 15:43:57;;;;;;;9.68;7.07;;;;;;;17.21;53.29;98207.25;10447834;28;20045;-23
2022/03/18 15:48:59;;;;;;;10.45;6.35;;;;;;;17.16;53.01;98198.66;10456374;28;20458;-23
2022/03/18 15:54:00;;;;;;;9.02;6.10;;;;;;;17.22;53.27;98198.84;10467527;28;20500;-23
2022/03/18 15:59:01;;;;;;;14.07;9.07;;;;;;;17.27;58.06;98197.31;10461863;28;20052;-22
2022/03/18 16:04:02;;;;;;;13.07;8.23;;;;;;;17.34;58.40;98205.94;10456679;28;20032;-23
2022/03/18 16:09:03;;;;;;;10.35;6.93;;;;;;;17.27;54.27;98197.31;10459972;28;20475;-24
2022/03/18 16:14:05;;;;;;;9.65;6.45;;;;;;;17.24;53.03;98191.31;10459532;28;20029;-24
2022/03/18 16:19:06;;;;;;;9.68;6.22;;;;;;;17.16;52.76;98191.06;10463581;28;20066;-24
2022/03/18 16:24:07;;;;;;;8.23;6.53;;;;;;;17.24;52.92;98196.38;10458839;28;20032;-23
2022/03/18 16:29:10;;;;;;;10.55;6.50;;;;;;;17.22;53.29;98197.97;10456317;28;20043;-23
2022/03/18 16:34:10;;;;;;;11.23;6.63;;;;;;;17.22;53.37;98203.03;10463703;28;20036;-24
2022/03/18 16:39:10;;;;;;;7.57;6.20;;;;;;;17.23;53.35;98194.66;10455360;28;20085;-24
2022/03/18 16:44:11;;;;;;;15.40;9.03;;;;;;;17.14;52.86;98205.38;10458695;28;20415;-23
2022/03/18 16:49:23;;;;;;;20.80;9.27;;;;;;;17.06;54.91;98190.78;10461288;28;20028;-22
2022/03/18 16:54:25;;;;;;;12.15;6.47;;;;;;;17.20;53.28;98210.63;10447562;28;20043;-21
2022/03/18 16:59:26;;;;;;;23.73;9.18;;;;;;;17.27;57.54;98216.69;10461588;28;20033;-21
2022/03/18 17:04:26;;;;;;;14.07;7.65;;;;;;;17.33;59.00;98211.81;10457619;28;20402;-23
2022/03/18 17:09:27;;;;;;;13.77;6.83;;;;;;;17.30;54.42;98206.66;10453682;28;20497;-22
2022/03/18 17:14:29;;;;;;;13.18;6.78;;;;;;;17.27;53.64;98211.63;10450788;28;20152;-20
2022/03/18 17:19:29;;;;;;;9.13;5.53;;;;;;;17.24;53.01;98206.50;10453555;28;20245;-23
2022/03/18 17:24:31;;;;;;;11.50;6.30;;;;;;;17.18;53.94;98208.84;10465174;28;20121;-21
2022/03/18 17:29:32;;;;;;;11.27;5.68;;;;;;;17.23;53.29;98212.38;10452503;28;20400;-22
2022/03/18 17:34:32;;;;;;;13.83;7.70;;;;;;;17.26;53.46;98220.03;10451387;28;20043;-23
2022/03/18 17:39:34;;;;;;;18.77;8.57;;;;;;;17.23;53.85;98225.88;10438753;28;20860;-21
2022/03/18 17:44:35;;;;;;;35.83;13.82;;;;;;;16.95;52.73;98225.03;10410335;28;20041;-20
2022/03/18 17:49:36;;;;;;;15.25;8.27;;;;;;;17.10;52.96;98240.66;10439632;28;20113;-23
2022/03/18 17:54:36;;;;;;;13.87;7.77;;;;;;;17.16;54.14;98244.22;10463942;28;20033;-23
2022/03/18 17:59:39;;;;;;;22.85;10.30;;;;;;;17.21;57.51;98251.94;10456630;28;20037;-23
2022/03/18 18:04:43;;;;;;;22.38;10.60;;;;;;;17.28;58.48;98251.31;10460012;28;20208;-22
2022/03/18 18:09:45;;;;;;;19.02;10.18;;;;;;;17.25;57.84;98257.16;10467219;28;20044;-24
2022/03/18 18:14:45;;;;;;;13.85;7.78;;;;;;;17.20;53.64;98253.63;10469380;28;20509;-22
2022/03/18 18:25:05;;;;;;;10.98;6.65;;;;;;;17.19;53.42;98266.25;10462372;28;20116;-22
2022/03/18 18:30:06;;;;;;;8.95;6.47;;;;;;;17.07;52.88;98243.97;10471746;28;20112;-22
2022/03/18 18:35:07;;;;;;;9.18;6.32;;;;;;;17.16;53.01;98276.28;10458489;28;20465;-23
2022/03/18 18:40:08;;;;;;;10.35;6.97;;;;;;;17.07;52.90;98255.78;10462103;28;20067;-23
2022/03/18 18:45:10;;;;;;;10.05;7.05;;;;;;;17.15;52.93;98269.50;10474893;28;20451;-24
2022/03/18 18:50:10;;;;;;;7.63;5.67;;;;;;;17.11;52.80;98275.28;10462471;28;20039;-21
2022/03/18 18:55:10;;;;;;;7.23;5.90;;;;;;;17.12;52.70;98271.94;10459073;28;20025;-22
2022/03/18 19:00:11;;;;;;;10.43;5.93;;;;;;;17.09;52.83;98265.09;10461800;28;20036;-24
2022/03/18 19:05:12;;;;;;;12.95;7.57;;;;;;;17.14;56.58;98280.44;10460506;28;20662;-23
2022/03/18 19:10:13;;;;;;;12.13;7.13;;;;;;;17.23;58.33;98271.44;10467616;28;20086;-22
2022/03/18 19:15:16;;;;;;;11.20;6.38;;;;;;;17.26;58.01;98279.09;10461093;28;20055;-22
2022/03/18 19:20:17;;;;;;;8.20;6.10;;;;;;;17.18;54.91;98280.59;10467141;28;20120;-22
2022/03/18 19:25:18;;;;;;;9.38;6.47;;;;;;;17.10;53.40;98278.63;10462128;28;20565;-22
2022/03/18 19:30:18;;;;;;;8.55;5.80;;;;;;;17.09;53.50;98276.91;10457981;28;20029;-21
2022/03/18 19:35:19;;;;;;;8.68;5.40;;;;;;;17.07;52.95;98284.44;10459302;28;20037;-23
2022/03/18 19:40:21;;;;;;;7.72;5.32;;;;;;;17.06;53.17;98292.84;10465235;28;20460;-22
2022/03/18 19:45:21;;;;;;;9.65;6.00;;;;;;;17.05;53.24;98301.25;10468707;28;20024;-23
2022/03/18 19:50:22;;;;;;;8.20;5.53;;;;;;;17.04;52.95;98303.72;10459947;28;20036;-23
2022/03/18 20:00:58;;;;;;;6.95;5.38;;;;;;;17.01;52.77;98296.94;10373588;28;20041;-23
2022/03/18 20:05:59;;;;;;;6.55;5.30;;;;;;;17.02;52.75;98305.38;10460674;28;20492;-23
2022/03/18 20:10:59;;;;;;;6.47;5.55;;;;;;;17.00;53.07;98307.84;10460452;28;20036;-22
2022/03/18 20:16:00;;;;;;;9.80;6.40;;;;;;;17.15;57.85;98312.53;10445391;28;20109;-23
2022/03/18 20:21:01;;;;;;;8.45;5.88;;;;;;;17.20;58.10;98299.19;10461145;28;20082;-23
2022/03/18 20:26:01;;;;;;;7.80;6.20;;;;;;;17.17;57.83;98305.84;10455729;28;20056;-24
2022/03/18 20:31:02;;;;;;;7.85;5.45;;;;;;;17.10;54.03;98309.88;10457459;28;20035;-23
2022/03/18 20:36:06;;;;;;;7.35;6.00;;;;;;;17.05;53.42;98311.38;10453911;28;20047;-24
2022/03/18 20:41:09;;;;;;;6.65;5.45;;;;;;;17.04;53.28;98309.66;10461119;28;20552;-22
2022/03/18 20:46:10;;;;;;;7.88;5.38;;;;;;;17.02;52.87;98320.53;10463733;28;20045;-22
2022/03/18 20:51:10;;;;;;;8.05;4.93;;;;;;;16.96;52.95;98300.97;10460430;28;20335;-22
2022/03/18 20:56:10;;;;;;;6.65;5.13;;;;;;;17.00;52.81;98314.59;10454697;28;20037;-21
2022/03/18 21:01:11;;;;;;;8.85;5.70;;;;;;;16.98;52.96;98312.00;10462072;28;20121;-22
2022/03/18 21:06:11;;;;;;;8.23;6.07;;;;;;;16.96;52.95;98311.09;10457804;28;20034;-23
2022/03/18 21:11:12;;;;;;;9.70;5.93;;;;;;;16.96;52.76;98300.97;10464985;28;20116;-23
2022/03/18 21:16:12;;;;;;;7.53;5.15;;;;;;;16.95;52.77;98299.28;10456976;28;20115;-23
2022/03/18 21:21:15;;;;;;;8.38;6.07;;;;;;;17.02;57.78;98300.31;10465438;28;20051;-23
2022/03/18 21:31:35;;;;;;;5.85;4.82;;;;;;;17.17;57.94;98295.72;10453288;28;20494;-23
2022/03/18 21:36:38;;;;;;;7.43;5.72;;;;;;;17.10;55.07;98296.34;10452854;28;20032;-23
2022/03/18 21:41:39;;;;;;;7.38;5.28;;;;;;;17.01;54.03;98288.47;10471308;28;20424;-22
2022/03/18 21:46:39;;;;;;;5.80;5.20;;;;;;;17.01;53.96;98288.47;10458589;28;20124;-21
2022/03/18 21:51:39;;;;;;;6.93;5.10;;;;;;;16.99;52.89;98290.94;10463638;28;20409;-22
2022/03/18 21:56:41;;;;;;;5.77;4.77;;;;;;;16.99;53.14;98290.09;10461443;28;20349;-22
2022/03/18 22:01:41;;;;;;;6.90;5.18;;;;;;;16.93;52.22;98282.31;10463522;28;20033;-22
2022/03/18 22:06:43;;;;;;;8.33;5.83;;;;;;;16.96;52.79;98288.34;10477306;28;20044;-23
2022/03/18 22:11:43;;;;;;;6.35;5.30;;;;;;;16.94;52.72;98276.44;10467912;28;20267;-23
2022/03/18 22:16:44;;;;;;;6.77;5.17;;;;;;;16.94;52.80;98266.31;10447561;28;20038;-22
2022/03/18 22:21:44;;;;;;;6.77;5.13;;;;;;;16.90;52.85;98277.19;10468852;28;20033;-22
2022/03/18 22:26:44;;;;;;;5.65;4.88;;;;;;;16.91;52.76;98268.78;10464070;28;20377;-22
2022/03/18 22:31:45;;;;;;;6.60;5.03;;;;;;;17.02;57.65;98263.22;10450925;28;20033;-31
2022/03/18 22:36:45;;;;;;;5.28;4.75;;;;;;;17.11;57.77;98265.16;10461922;28;20060;-23
2022/03/18 22:41:47;;;;;;;8.65;5.07;;;;;;;17.11;57.51;98260.09;10468770;28;20091;-23
2022/03/18 22:46:48;;;;;;;5.22;4.57;;;;;;;17.07;54.74;98255.78;10465685;28;20444;-23
2022/03/18 22:51:51;;;;;;;8.23;5.28;;;;;;;17.01;53.56;98263.16;10461736;28;20190;-23
2022/03/18 22:56:51;;;;;;;5.45;4.72;;;;;;;16.98;54.02;98242.84;10466990;28;20043;-23
2022/03/18 23:01:52;;;;;;;6.60;5.27;;;;;;;16.90;52.76;98236.69;10456759;28;20035;-24
2022/03/18 23:06:53;;;;;;;5.40;4.55;;;;;;;16.93;52.76;98234.25;10470786;28;20379;-22
2022/03/18 23:12:09;;;;;;;5.80;4.87;;;;;;;16.91;52.86;98243.47;10463560;28;20029;-22
2022/03/18 23:17:10;;;;;;;6.07;4.88;;;;;;;16.90;52.98;98247.66;10450067;28;20299;-22
2022/03/18 23:22:11;;;;;;;6.43;5.10;;;;;;;16.89;52.83;98237.50;10465953;28;20124;-23
2022/03/18 23:27:11;;;;;;;5.55;4.90;;;;;;;16.89;52.92;98237.50;10460888;28;20033;-22
2022/03/18 23:32:11;;;;;;;6.47;4.20;;;;;;;16.90;52.65;98234.16;10467089;28;20020;-23
2022/03/18 23:37:14;;;;;;;4.93;4.40;;;;;;;16.89;52.71;98232.44;10460126;28;20286;-22
2022/03/18 23:42:15;;;;;;;5.97;5.13;;;;;;;17.01;57.46;98245.47;10465752;28;20036;-22
2022/03/18 23:47:15;;;;;;;5.75;4.53;;;;;;;17.08;57.33;98239.78;10463300;28;20451;-23
2022/03/18 23:52:16;;;;;;;5.87;4.80;;;;;;;17.03;55.86;98236.22;10458248;28;20028;-21